Time;durP1;ratioP1;P1;durP2;ratioP2;P2;SDS_P1;SDS_P2;PMS_P1;PMS_P2;Temp;Humidity;BMP_temperature;BMP_pressure;BME280_temperature;BME280_humidity;BME280_pressure;Samples;Min_cycle;Max_cycle;Signal;HPM_P1;HPM_P2
2023/12/09 00:02:21;;;;;;;39.45;30.63;;;;;;;2.17;100.00;99779.28;5028192;28;20386;-75
2023/12/09 00:04:47;;;;;;;37.67;27.92;;;;;;;2.17;100.00;99779.28;5025393;28;20030;-74
2023/12/09 00:07:12;;;;;;;34.55;27.17;;;;;;;2.19;100.00;99798.22;5025203;28;20042;-75
2023/12/09 00:09:38;;;;;;;36.35;29.05;;;;;;;2.20;100.00;99800.75;5027307;28;20049;-74
2023/12/09 00:12:04;;;;;;;39.25;28.67;;;;;;;2.20;100.00;99792.09;5027327;28;20032;-75
2023/12/09 00:14:29;;;;;;;34.20;27.77;;;;;;;2.19;100.00;99793.88;5026538;28;20029;-74
2023/12/09 00:16:55;;;;;;;34.75;27.90;;;;;;;2.19;100.00;99800.84;5025250;28;20509;-74
2023/12/09 00:19:20;;;;;;;38.20;28.95;;;;;;;2.13;100.00;99798.56;5029090;28;20037;-73
2023/12/09 00:21:46;;;;;;;38.55;29.05;;;;;;;2.14;100.00;99800.25;5026546;28;20088;-73
2023/12/09 00:24:11;;;;;;;37.72;29.65;;;;;;;2.11;100.00;99792.63;5028300;28;20118;-74
2023/12/09 00:26:37;;;;;;;37.05;28.08;;;;;;;2.09;100.00;99791.84;5026465;28;20045;-75
2023/12/09 00:29:03;;;;;;;40.58;29.90;;;;;;;2.09;100.00;99782.28;5023592;28;20037;-74
2023/12/09 00:31:28;;;;;;;36.30;30.00;;;;;;;2.08;100.00;99779.75;5026998;28;20433;-75
2023/12/09 00:33:54;;;;;;;40.67;28.77;;;;;;;2.08;100.00;99779.75;5030259;28;20064;-75
2023/12/09 00:36:19;;;;;;;37.95;28.63;;;;;;;2.01;100.00;99768.84;5008477;28;20033;-74
2023/12/09 00:38:45;;;;;;;35.17;27.88;;;;;;;1.98;100.00;99772.47;5030465;28;20076;-75
2023/12/09 00:41:10;;;;;;;38.95;29.95;;;;;;;1.99;100.00;99771.56;5028316;28;20026;-75
2023/12/09 00:43:36;;;;;;;37.22;28.05;;;;;;;2.03;100.00;99778.25;5030608;28;20121;-75
2023/12/09 00:46:01;;;;;;;39.92;27.88;;;;;;;2.05;100.00;99780.78;5030149;28;20072;-74
2023/12/09 00:48:27;;;;;;;34.35;27.13;;;;;;;2.04;100.00;99784.31;5030666;28;20469;-74
2023/12/09 00:50:52;;;;;;;44.08;27.98;;;;;;;2.02;100.00;99792.19;5030231;28;20390;-75
2023/12/09 00:53:18;;;;;;;36.45;26.95;;;;;;;2.02;100.00;99792.19;5029939;28;20138;-75
2023/12/09 00:55:43;;;;;;;36.92;27.33;;;;;;;2.03;100.00;99798.25;5030355;28;20037;-76
2023/12/09 00:58:08;;;;;;;40.30;26.80;;;;;;;2.05;100.00;99796.41;5030094;28;20497;-75
2023/12/09 01:00:34;;;;;;;36.97;26.65;;;;;;;2.06;100.00;99809.31;5032582;28;20065;-73
2023/12/09 01:02:59;;;;;;;37.22;27.27;;;;;;;2.06;100.00;99804.09;5033742;28;20064;-75
2023/12/09 01:05:25;;;;;;;34.08;26.63;;;;;;;2.08;100.00;99800.59;5033450;28;20037;-74
2023/12/09 01:07:50;;;;;;;36.30;26.80;;;;;;;2.08;100.00;99811.00;5033775;28;20032;-75
2023/12/09 01:10:15;;;;;;;33.00;25.83;;;;;;;2.09;100.00;99812.69;5031678;28;20049;-74
2023/12/09 01:12:41;;;;;;;34.70;25.25;;;;;;;2.09;100.00;99820.50;5033877;28;20076;-73
2023/12/09 01:15:07;;;;;;;35.47;26.92;;;;;;;2.12;100.00;99822.94;5033438;28;20099;-75
2023/12/09 01:17:32;;;;;;;36.28;25.02;;;;;;;2.12;100.00;99818.56;5026044;28;20116;-74
2023/12/09 01:19:58;;;;;;;32.45;25.80;;;;;;;2.14;100.00;99831.50;5033976;28;20112;-74
2023/12/09 01:22:24;;;;;;;32.58;25.05;;;;;;;2.13;100.00;99835.00;5037035;28;20034;-75
2023/12/09 01:24:49;;;;;;;31.73;25.05;;;;;;;2.11;100.00;99836.88;5018448;28;20028;-75
2023/12/09 01:27:15;;;;;;;36.10;25.38;;;;;;;2.12;100.00;99838.56;5033782;28;20044;-75
2023/12/09 01:29:40;;;;;;;33.10;25.60;;;;;;;2.13;100.00;99837.63;5033838;28;20045;-76
2023/12/09 01:32:05;;;;;;;33.30;26.00;;;;;;;2.14;100.00;99847.09;5033555;28;20026;-75
2023/12/09 01:34:31;;;;;;;34.53;26.13;;;;;;;2.11;100.00;99852.50;5033671;28;20040;-76
2023/12/09 01:36:56;;;;;;;33.50;25.75;;;;;;;2.04;100.00;99852.81;5033410;28;20041;-75
2023/12/09 01:39:22;;;;;;;32.75;25.83;;;;;;;2.02;100.00;99865.06;5033332;28;20036;-75
2023/12/09 01:41:47;;;;;;;33.00;25.20;;;;;;;2.00;100.00;99864.31;5032977;28;20036;-75
2023/12/09 01:44:13;;;;;;;34.80;26.80;;;;;;;2.00;100.00;99856.50;5033199;28;20033;-76
2023/12/09 01:46:39;;;;;;;37.40;26.75;;;;;;;1.99;100.00;99854.84;5033397;28;20068;-75
2023/12/09 01:49:05;;;;;;;34.15;25.98;;;;;;;2.01;100.00;99852.13;5032984;28;20044;-76
2023/12/09 01:51:33;;;;;;;34.97;25.77;;;;;;;2.00;100.00;99856.50;5032932;28;20037;-75
2023/12/09 01:53:58;;;;;;;35.42;26.08;;;;;;;1.99;100.00;99864.41;5033195;28;20033;-74
2023/12/09 01:56:24;;;;;;;34.40;25.83;;;;;;;1.94;100.00;99862.06;5033156;28;20033;-76
2023/12/09 01:58:51;;;;;;;33.00;25.73;;;;;;;1.89;100.00;99847.56;5026056;28;20041;-75
2023/12/09 02:01:16;;;;;;;34.05;26.25;;;;;;;1.88;100.00;99845.91;5030635;28;20044;-75
2023/12/09 02:03:42;;;;;;;36.03;26.50;;;;;;;1.82;100.00;99839.28;5009844;28;20049;-75
2023/12/09 02:06:09;;;;;;;33.72;27.30;;;;;;;1.72;100.00;99825.06;5033151;28;20029;-75
2023/12/09 02:08:35;;;;;;;33.95;26.48;;;;;;;1.73;100.00;99823.28;5015414;28;20461;-74
2023/12/09 02:11:19;;;;;;;35.85;27.95;;;;;;;1.76;100.00;99842.19;5030739;28;20536;-76
2023/12/09 02:13:56;;;;;;;33.75;27.83;;;;;;;1.77;100.00;99846.47;5028322;28;20108;-73
2023/12/09 02:16:40;;;;;;;32.30;25.75;;;;;;;1.76;100.00;99852.59;5032751;28;20029;-74
2023/12/09 02:19:10;;;;;;;33.65;26.25;;;;;;;1.77;100.00;99869.88;5025653;28;20125;-74
2023/12/09 02:22:05;;;;;;;35.45;27.38;;;;;;;1.71;100.00;99885.81;5025274;28;20052;-75
2023/12/09 02:24:31;;;;;;;34.67;27.20;;;;;;;1.68;100.00;99891.19;5032956;28;20400;-75
2023/12/09 02:27:14;;;;;;;37.72;26.65;;;;;;;1.58;100.00;99900.38;5032798;28;21492;-75
2023/12/09 02:29:49;;;;;;;45.65;27.58;;;;;;;1.47;100.00;99919.09;5026734;28;20033;-74
2023/12/09 02:32:19;;;;;;;36.40;28.38;;;;;;;1.41;100.00;99918.59;5032465;28;20021;-74
2023/12/09 02:34:47;;;;;;;40.35;29.23;;;;;;;1.39;100.00;99891.81;5027954;28;20045;-75
2023/12/09 02:37:15;;;;;;;75.75;32.33;;;;;;;1.39;100.00;99871.00;5031468;28;20164;-75
2023/12/09 02:39:41;;;;;;;42.65;28.13;;;;;;;1.37;100.00;99870.25;5032473;28;20029;-75
2023/12/09 02:42:09;;;;;;;51.90;30.92;;;;;;;1.36;100.00;99863.34;5032220;28;20030;-74
2023/12/09 02:44:35;;;;;;;74.53;31.55;;;;;;;1.31;100.00;99867.94;5025227;28;20064;-73
2023/12/09 02:47:00;;;;;;;70.97;30.08;;;;;;;1.21;100.00;99871.03;5032153;28;20064;-74
2023/12/09 02:49:26;;;;;;;64.55;31.90;;;;;;;1.19;100.00;99851.22;5032229;28;20056;-76
2023/12/09 02:51:51;;;;;;;91.18;30.75;;;;;;;1.13;100.00;99854.94;5031927;28;20512;-75
2023/12/09 02:54:18;;;;;;;56.65;30.00;;;;;;;1.13;100.00;99841.97;5031642;28;20021;-75
2023/12/09 02:56:44;;;;;;;67.30;29.95;;;;;;;1.11;100.00;99833.41;5031712;28;20056;-75
2023/12/09 02:59:09;;;;;;;69.47;30.00;;;;;;;1.08;100.00;99833.56;5031733;28;20033;-75
2023/12/09 03:01:35;;;;;;;99.57;29.83;;;;;;;1.00;100.00;99829.69;5029437;28;20037;-74
2023/12/09 03:04:01;;;;;;;71.63;28.48;;;;;;;0.95;100.00;99822.09;5025489;28;20065;-73
2023/12/09 03:06:26;;;;;;;58.95;29.85;;;;;;;0.92;100.00;99817.06;5022328;28;20029;-76
2023/12/09 03:08:52;;;;;;;52.72;29.00;;;;;;;0.90;100.00;99818.88;5010592;28;20375;-76
2023/12/09 03:11:17;;;;;;;64.53;29.08;;;;;;;0.86;100.00;99812.16;5028227;28;20029;-75
2023/12/09 03:13:43;;;;;;;60.72;29.45;;;;;;;0.83;100.00;99807.94;5028655;28;20065;-75
2023/12/09 03:16:08;;;;;;;80.93;30.10;;;;;;;0.82;100.00;99816.66;5027780;28;20064;-77
2023/12/09 03:18:33;;;;;;;65.68;29.45;;;;;;;0.76;100.00;99805.75;5031420;28;20040;-74
2023/12/09 03:20:59;;;;;;;72.55;30.48;;;;;;;0.67;100.00;99811.38;5025942;28;20021;-76
2023/12/09 03:23:24;;;;;;;41.70;28.95;;;;;;;0.61;100.00;99816.84;5025220;28;20040;-73
2023/12/09 03:25:50;;;;;;;65.85;31.25;;;;;;;0.65;100.00;99814.03;5027390;28;20050;-73
2023/12/09 03:28:15;;;;;;;86.20;30.80;;;;;;;0.61;100.00;99816.84;5025621;28;20167;-76
2023/12/09 03:30:41;;;;;;;66.78;31.00;;;;;;;0.57;100.00;99820.53;5011243;28;20125;-75
2023/12/09 03:33:06;;;;;;;60.45;30.13;;;;;;;0.55;100.00;99812.81;5027344;28;20030;-75
2023/12/09 03:35:32;;;;;;;60.72;30.73;;;;;;;0.57;100.00;99815.34;5027451;28;20520;-74
2023/12/09 03:37:57;;;;;;;66.82;31.98;;;;;;;0.60;100.00;99822.97;5029974;28;20052;-76
2023/12/09 03:40:22;;;;;;;50.55;31.58;;;;;;;0.63;100.00;99812.44;5025799;28;20033;-74
2023/12/09 03:42:48;;;;;;;73.25;31.13;;;;;;;0.64;100.00;99816.72;5027562;28;20034;-74
2023/12/09 03:45:14;;;;;;;79.20;30.63;;;;;;;0.63;100.00;99825.44;5029366;28;20033;-75
2023/12/09 03:47:39;;;;;;;56.25;30.40;;;;;;;0.59;100.00;99823.91;5027815;28;20026;-75
2023/12/09 03:50:05;;;;;;;93.68;30.35;;;;;;;0.55;100.00;99820.59;5027964;28;20386;-75
2023/12/09 03:52:31;;;;;;;75.93;28.80;;;;;;;0.48;100.00;99815.75;5031146;28;20065;-74
2023/12/09 03:54:56;;;;;;;61.95;30.08;;;;;;;0.43;100.00;99815.13;5025893;28;20033;-75
2023/12/09 03:57:22;;;;;;;86.80;30.25;;;;;;;0.38;100.00;99811.00;5027913;28;20540;-75
2023/12/09 03:59:48;;;;;;;72.75;29.80;;;;;;;0.31;100.00;99808.78;5030305;28;20088;-75
2023/12/09 04:02:14;;;;;;;82.72;30.48;;;;;;;0.19;100.00;99810.19;5026325;28;20049;-75
2023/12/09 04:04:40;;;;;;;63.08;30.95;;;;;;;0.14;100.00;99806.97;5031711;28;20045;-74
2023/12/09 04:07:06;;;;;;;101.53;29.50;;;;;;;0.07;100.00;99800.38;5031163;28;20030;-75
2023/12/09 04:09:31;;;;;;;106.75;29.50;;;;;;;0.06;100.00;99809.06;5013328;28;20441;-76
2023/12/09 04:11:57;;;;;;;53.90;30.55;;;;;;;0.11;100.00;99812.31;5031142;28;20029;-76
2023/12/09 04:14:22;;;;;;;70.28;29.77;;;;;;;0.14;100.00;99804.38;5030700;28;20128;-75
2023/12/09 04:16:47;;;;;;;59.78;29.15;;;;;;;0.18;100.00;99813.69;5030883;28;20029;-75
2023/12/09 04:19:13;;;;;;;80.38;31.92;;;;;;;0.26;100.00;99816.78;5030713;28;20045;-74
2023/12/09 04:21:38;;;;;;;89.15;32.15;;;;;;;0.27;100.00;99822.81;5030831;28;20030;-75
2023/12/09 04:24:04;;;;;;;67.90;28.77;;;;;;;0.20;100.00;99832.63;5007612;28;20033;-73
2023/12/09 04:26:30;;;;;;;75.15;29.25;;;;;;;0.21;100.00;99833.47;5030634;28;20037;-76
2023/12/09 04:28:55;;;;;;;76.95;29.38;;;;;;;0.18;100.00;99844.84;5031087;28;20037;-75
2023/12/09 04:31:21;;;;;;;82.97;30.55;;;;;;;0.18;100.00;99850.03;5030431;28;20497;-75
2023/12/09 04:33:46;;;;;;;78.28;29.58;;;;;;;0.12;100.00;99845.13;5030618;28;20053;-75
2023/12/09 04:36:12;;;;;;;75.32;31.10;;;;;;;0.07;100.00;99857.47;5033443;28;20079;-75
2023/12/09 04:38:38;;;;;;;53.00;30.02;;;;;;;0.08;100.00;99853.13;5032663;28;20030;-75
2023/12/09 04:41:04;;;;;;;76.32;27.77;;;;;;;0.05;100.00;99854.13;5026776;28;20044;-74
2023/12/09 04:43:29;;;;;;;52.08;29.83;;;;;;;0.05;100.00;99854.13;5034936;28;20026;-74
2023/12/09 04:45:55;;;;;;;61.75;30.08;;;;;;;0.04;100.00;99849.84;5034641;28;20025;-73
2023/12/09 04:48:20;;;;;;;75.18;29.73;;;;;;;0.05;100.00;99859.31;5034155;28;20030;-74
2023/12/09 04:50:46;;;;;;;69.15;29.92;;;;;;;0.01;100.00;99849.97;5034542;28;20062;-75
2023/12/09 04:53:11;;;;;;;61.13;29.90;;;;;;;0.06;100.00;99858.38;5033709;28;20389;-74
2023/12/09 04:55:37;;;;;;;68.38;30.95;;;;;;;0.09;100.00;99863.44;5030406;28;20511;-75
2023/12/09 04:58:03;;;;;;;95.40;31.05;;;;;;;0.01;100.00;99855.16;5026144;28;20036;-74
2023/12/09 05:00:28;;;;;;;60.78;30.63;;;;;;;-0.04;100.00;99849.31;5034103;28;20091;-74
2023/12/09 05:02:54;;;;;;;50.10;31.05;;;;;;;0.05;100.00;99848.09;5034211;28;20033;-74
2023/12/09 05:05:19;;;;;;;48.28;32.40;;;;;;;0.11;100.00;99834.84;5033702;28;20033;-73
2023/12/09 05:07:44;;;;;;;64.95;31.13;;;;;;;0.19;100.00;99835.28;5033868;28;20144;-75
2023/12/09 05:10:12;;;;;;;43.30;30.48;;;;;;;0.23;100.00;99837.72;5032758;28;20469;-75
2023/12/09 05:12:39;;;;;;;49.85;30.35;;;;;;;0.28;100.00;99850.47;5032976;28;20095;-75
2023/12/09 05:15:05;;;;;;;51.78;30.02;;;;;;;0.29;100.00;99842.63;5024763;28;20026;-74
2023/12/09 05:17:31;;;;;;;50.08;29.48;;;;;;;0.32;100.00;99842.44;5025749;28;20474;-75
2023/12/09 05:19:57;;;;;;;46.85;28.40;;;;;;;0.33;100.00;99849.34;5032771;28;20056;-75
2023/12/09 05:22:23;;;;;;;70.18;29.63;;;;;;;0.34;100.00;99851.03;5032405;28;20026;-73
2023/12/09 05:24:49;;;;;;;42.28;28.02;;;;;;;0.32;100.00;99852.84;5028046;28;20017;-73
2023/12/09 05:27:14;;;;;;;57.40;29.48;;;;;;;0.30;100.00;99854.66;5032600;28;20485;-73
2023/12/09 05:29:39;;;;;;;45.45;29.73;;;;;;;0.24;100.00;99847.16;5032754;28;20523;-74
2023/12/09 05:32:05;;;;;;;114.75;32.15;;;;;;;0.15;100.00;99846.75;5032647;28;20366;-74
2023/12/09 05:34:31;;;;;;;96.10;29.38;;;;;;;0.08;100.00;99851.38;5033049;28;20049;-75
2023/12/09 05:36:57;;;;;;;43.45;27.90;;;;;;;0.12;100.00;99855.50;5032969;28;20029;-75
2023/12/09 05:39:22;;;;;;;52.67;27.48;;;;;;;0.15;100.00;99854.53;5031910;28;20097;-75
2023/12/09 05:41:47;;;;;;;59.30;28.27;;;;;;;0.15;100.00;99857.97;5032662;28;20545;-73
2023/12/09 05:44:13;;;;;;;59.28;27.45;;;;;;;0.08;100.00;99864.34;5014563;28;20121;-74
2023/12/09 05:46:40;;;;;;;52.47;27.80;;;;;;;0.02;100.00;99863.78;5032272;28;20040;-75
2023/12/09 05:49:05;;;;;;;43.35;29.48;;;;;;;-0.04;100.00;99870.06;5032228;28;20083;-73
2023/12/09 05:51:31;;;;;;;39.47;28.77;;;;;;;-0.03;100.00;99871.78;5032608;28;20034;-75
2023/12/09 05:53:56;;;;;;;47.92;28.45;;;;;;;0.02;100.00;99863.78;5028513;28;20577;-75
2023/12/09 05:56:22;;;;;;;46.03;27.63;;;;;;;0.06;100.00;99866.16;5014505;28;20048;-75
2023/12/09 05:58:48;;;;;;;54.45;29.33;;;;;;;0.07;100.00;99873.03;5033085;28;20103;-73
2023/12/09 06:01:13;;;;;;;50.17;27.55;;;;;;;0.06;100.00;99881.72;5030203;28;20116;-75
2023/12/09 06:03:38;;;;;;;41.00;26.80;;;;;;;-0.01;100.00;99888.97;5031629;28;20036;-76
2023/12/09 06:06:04;;;;;;;55.53;25.63;;;;;;;-0.10;100.00;99891.09;5025152;28;20041;-73
2023/12/09 06:08:30;;;;;;;47.83;26.33;;;;;;;-0.11;100.00;99899.78;5029995;28;20056;-74
2023/12/09 06:10:55;;;;;;;33.38;26.27;;;;;;;-0.12;100.00;99898.13;5032612;28;20033;-75
2023/12/09 06:13:21;;;;;;;81.10;28.70;;;;;;;-0.13;100.00;99906.81;5032605;28;20442;-75
2023/12/09 06:15:46;;;;;;;60.28;26.58;;;;;;;-0.09;100.00;99918.72;5032772;28;20038;-76
2023/12/09 06:18:12;;;;;;;47.80;25.88;;;;;;;-0.06;100.00;99918.63;5031762;28;20029;-75
2023/12/09 06:20:37;;;;;;;83.30;27.48;;;;;;;-0.08;100.00;99910.03;5032284;28;20366;-74
2023/12/09 06:23:03;;;;;;;39.67;27.73;;;;;;;-0.11;100.00;99911.00;5024260;28;20160;-74
2023/12/09 06:25:28;;;;;;;69.50;28.13;;;;;;;-0.15;100.00;99906.88;5028855;28;20037;-75
2023/12/09 06:27:54;;;;;;;42.20;28.73;;;;;;;-0.13;100.00;99912.00;5036251;28;20041;-74
2023/12/09 06:30:20;;;;;;;59.25;29.45;;;;;;;-0.12;100.00;99906.72;5032383;28;20056;-75
2023/12/09 06:32:45;;;;;;;54.97;28.75;;;;;;;-0.08;100.00;99915.22;5025342;28;20478;-74
2023/12/09 06:35:11;;;;;;;74.93;30.15;;;;;;;-0.12;100.00;99913.69;5025505;28;20120;-75
2023/12/09 06:37:36;;;;;;;46.17;30.10;;;;;;;-0.16;100.00;99909.53;5029216;28;20040;-75
2023/12/09 06:40:02;;;;;;;44.30;29.98;;;;;;;-0.15;100.00;99908.63;5031696;28;20095;-75
2023/12/09 06:42:27;;;;;;;62.35;30.08;;;;;;;-0.16;100.00;99896.56;5026071;28;20038;-75
2023/12/09 06:44:54;;;;;;;42.00;31.10;;;;;;;-0.13;100.00;99901.63;5012684;28;20064;-75
2023/12/09 06:47:20;;;;;;;47.40;29.40;;;;;;;-0.09;100.00;99893.63;5027167;28;20085;-73
2023/12/09 06:49:45;;;;;;;56.83;31.25;;;;;;;-0.12;100.00;99887.75;5029754;28;20445;-75
2023/12/09 06:52:11;;;;;;;99.95;32.05;;;;;;;-0.23;100.00;99889.94;5007951;28;20026;-75
2023/12/09 06:54:36;;;;;;;42.40;31.38;;;;;;;-0.18;100.00;99888.03;5028488;28;20155;-75
2023/12/09 06:57:02;;;;;;;39.58;30.65;;;;;;;-0.07;100.00;99875.41;4995492;28;20032;-74
2023/12/09 06:59:27;;;;;;;78.38;32.85;;;;;;;-0.10;100.00;99881.56;5028771;28;20669;-75
2023/12/09 07:01:56;;;;;;;53.72;31.45;;;;;;;-0.04;100.00;99885.66;5027814;28;20026;-73
2023/12/09 07:04:22;;;;;;;68.35;31.25;;;;;;;0.01;100.00;99888.88;5031104;28;20064;-76
2023/12/09 07:06:47;;;;;;;41.50;31.05;;;;;;;0.07;100.00;99893.78;5026434;28;20057;-74
2023/12/09 07:09:13;;;;;;;43.28;30.63;;;;;;;0.13;100.00;99916.88;5029900;28;20041;-74
2023/12/09 07:11:38;;;;;;;45.58;30.30;;;;;;;0.18;100.00;99904.53;5024508;28;20030;-75
2023/12/09 07:14:04;;;;;;;53.95;30.50;;;;;;;0.20;100.00;99905.31;5025922;28;20030;-76
2023/12/09 07:16:29;;;;;;;55.72;31.38;;;;;;;0.06;100.00;99915.44;5029764;28;20038;-76
2023/12/09 07:18:59;;;;;;;81.07;32.00;;;;;;;-0.08;100.00;99920.44;5028070;28;20037;-75
2023/12/09 07:21:26;;;;;;;148.38;33.17;;;;;;;-0.04;100.00;99919.38;5027728;28;20044;-76
2023/12/09 07:23:52;;;;;;;84.10;31.83;;;;;;;0.03;100.00;99932.91;5027367;28;20427;-75
2023/12/09 07:26:18;;;;;;;159.85;33.03;;;;;;;-0.17;100.00;99946.75;5027593;28;20060;-76
2023/12/09 07:28:44;;;;;;;57.35;29.38;;;;;;;-0.06;100.00;99939.38;5038357;22;20374;-73
2023/12/09 07:31:10;;;;;;;56.17;29.45;;;;;;;0.00;100.00;99942.50;5017847;28;20040;-73
2023/12/09 07:33:36;;;;;;;73.80;30.20;;;;;;;-0.04;100.00;99942.72;4999862;28;20100;-74
2023/12/09 07:36:01;;;;;;;65.20;29.52;;;;;;;-0.11;100.00;99941.28;5016270;28;20082;-70
2023/12/09 07:38:27;;;;;;;62.10;29.63;;;;;;;-0.02;100.00;99926.19;5002505;28;20030;-73
2023/12/09 07:40:52;;;;;;;104.20;29.50;;;;;;;-0.24;100.00;99919.41;5018253;28;20142;-71
2023/12/09 07:43:18;;;;;;;44.78;27.77;;;;;;;-0.23;100.00;99915.88;5020406;28;20425;-72
2023/12/09 07:45:43;;;;;;;48.17;30.13;;;;;;;-0.21;100.00;99919.25;5015389;28;20590;-72
2023/12/09 07:48:09;;;;;;;43.97;28.33;;;;;;;-0.11;100.00;99915.34;5018076;28;20030;-72
2023/12/09 07:50:35;;;;;;;67.00;29.00;;;;;;;-0.12;100.00;99904.13;5016041;28;20159;-73
2023/12/09 07:53:02;;;;;;;47.78;30.15;;;;;;;-0.02;100.00;99904.59;5015527;28;20486;-72
2023/12/09 07:55:27;;;;;;;38.00;28.40;;;;;;;0.06;100.00;99897.28;5011944;28;20555;-72
2023/12/09 07:57:53;;;;;;;37.95;29.60;;;;;;;0.15;100.00;99909.88;5016525;28;20065;-72
2023/12/09 08:00:18;;;;;;;75.70;29.63;;;;;;;0.14;100.00;99926.34;5013971;28;20489;-72
2023/12/09 08:02:44;;;;;;;70.50;27.33;;;;;;;0.07;100.00;99929.25;5014644;28;20030;-71
2023/12/09 08:05:09;;;;;;;79.13;28.15;;;;;;;-0.08;100.00;99931.66;5012496;28;20423;-73
2023/12/09 08:07:35;;;;;;;57.38;28.00;;;;;;;-0.30;100.00;99938.69;5019810;28;20041;-72
2023/12/09 08:10:00;;;;;;;62.55;29.63;;;;;;;-0.38;100.00;99943.34;5018562;28;20102;-72
2023/12/09 08:12:26;;;;;;;58.85;28.30;;;;;;;-0.46;100.00;99968.72;5018341;28;20037;-72
2023/12/09 08:14:52;;;;;;;56.08;30.15;;;;;;;-0.51;100.00;99974.09;5018885;28;20038;-72
2023/12/09 08:17:17;;;;;;;91.20;30.25;;;;;;;-0.59;100.00;99973.56;5019104;28;20061;-73
2023/12/09 08:19:42;;;;;;;84.65;30.60;;;;;;;-0.79;100.00;99967.53;5018954;28;20044;-73
2023/12/09 08:22:08;;;;;;;90.00;31.67;;;;;;;-0.81;100.00;99970.16;5012117;28;20101;-71
2023/12/09 08:24:34;;;;;;;56.67;33.30;;;;;;;-0.76;100.00;99957.88;5018483;28;20132;-72
2023/12/09 08:26:59;;;;;;;78.53;33.75;;;;;;;-0.71;100.00;99942.16;5020773;28;20105;-72
2023/12/09 08:29:25;;;;;;;69.65;32.97;;;;;;;-0.61;100.00;99935.69;5020001;28;20032;-72
2023/12/09 08:31:50;;;;;;;97.35;32.97;;;;;;;-0.62;100.00;99952.97;5018329;28;20556;-72
2023/12/09 08:34:16;;;;;;;89.57;35.35;;;;;;;-0.60;100.00;99943.41;5019359;28;20046;-73
2023/12/09 08:36:42;;;;;;;96.35;33.53;;;;;;;-0.69;100.00;99941.16;5018681;28;20045;-72
2023/12/09 08:39:10;;;;;;;76.90;31.13;;;;;;;-0.66;100.00;99948.84;5016344;28;20089;-73
2023/12/09 08:41:36;;;;;;;54.03;34.63;;;;;;;-0.39;100.00;99953.75;5010253;28;20033;-73
2023/12/09 08:44:03;;;;;;;60.45;34.58;;;;;;;-0.22;100.00;99969.44;5015163;28;20022;-72
2023/12/09 08:46:29;;;;;;;55.42;35.83;;;;;;;-0.10;100.00;99972.38;5013994;28;20037;-73
2023/12/09 08:48:55;;;;;;;46.42;33.53;;;;;;;-0.01;100.00;99968.53;5017285;28;20451;-74
2023/12/09 08:51:21;;;;;;;46.45;31.73;;;;;;;-0.12;100.00;99955.19;5017300;28;20025;-76
2023/12/09 08:53:47;;;;;;;48.75;31.42;;;;;;;-0.08;100.00;99948.97;5019024;28;20093;-72
2023/12/09 08:56:12;;;;;;;42.88;30.95;;;;;;;-0.04;100.00;99963.47;5020254;28;20018;-72
2023/12/09 08:58:38;;;;;;;41.00;29.63;;;;;;;-0.03;100.00;99965.16;5018174;28;20466;-74
2023/12/09 09:01:03;;;;;;;38.78;30.15;;;;;;;0.04;100.00;99971.78;5015855;28;20104;-72
2023/12/09 09:03:30;;;;;;;43.38;30.25;;;;;;;0.13;100.00;99971.34;5014747;28;20117;-73
2023/12/09 09:05:56;;;;;;;40.85;31.08;;;;;;;0.16;100.00;99981.63;5016298;28;20028;-74
2023/12/09 09:08:21;;;;;;;57.20;31.50;;;;;;;0.15;100.00;100005.03;5020597;28;20037;-73
2023/12/09 09:10:47;;;;;;;55.65;30.95;;;;;;;0.08;100.00;99994.06;5019734;28;20033;-71
2023/12/09 09:13:12;;;;;;;44.55;31.17;;;;;;;0.10;100.00;100002.66;5014123;28;20117;-74
2023/12/09 09:15:38;;;;;;;44.78;31.67;;;;;;;0.14;100.00;99988.63;5013606;28;20033;-72
2023/12/09 09:18:04;;;;;;;46.85;31.15;;;;;;;0.17;100.00;99991.09;5009702;28;20046;-74
2023/12/09 09:20:30;;;;;;;48.25;31.00;;;;;;;0.22;100.00;99985.69;5014947;28;20096;-73
2023/12/09 09:22:55;;;;;;;113.63;32.55;;;;;;;0.20;100.00;99998.75;5022814;28;20096;-72
2023/12/09 09:25:21;;;;;;;45.80;31.02;;;;;;;0.18;100.00;100010.94;5021755;28;20301;-73
2023/12/09 09:27:47;;;;;;;73.60;29.50;;;;;;;0.15;100.00;100011.06;4982922;28;20055;-73
2023/12/09 09:30:13;;;;;;;54.28;29.00;;;;;;;0.12;100.00;100006.00;5001486;28;20105;-72
2023/12/09 09:32:38;;;;;;;54.30;31.25;;;;;;;0.10;100.00;100005.25;4999142;28;20034;-72
2023/12/09 09:35:04;;;;;;;66.85;30.52;;;;;;;0.16;100.00;99999.78;5000250;28;20053;-73
2023/12/09 09:37:30;;;;;;;68.97;31.10;;;;;;;0.17;100.00;100009.25;5002832;28;20372;-72
2023/12/09 09:39:55;;;;;;;62.75;30.70;;;;;;;0.13;100.00;100002.50;4992061;28;20038;-74
2023/12/09 09:42:36;;;;;;;67.20;33.03;;;;;;;0.11;100.00;100009.53;4992294;28;20026;-72
2023/12/09 09:45:20;;;;;;;;;;;;;;;0.13;100.00;100019.81;4998984;28;20133;-72
2023/12/09 09:47:51;;;;;;;50.33;32.17;;;;;;;0.25;100.00;100020.13;4996558;28;20292;-74
2023/12/09 09:50:21;;;;;;;65.80;32.80;;;;;;;0.21;100.00;100015.16;4997099;28;20092;-73
2023/12/09 09:52:48;;;;;;;44.92;31.67;;;;;;;0.31;100.00;100012.09;5000718;28;20122;-75
2023/12/09 09:55:15;;;;;;;46.08;31.85;;;;;;;0.44;100.00;100014.13;5004510;28;20026;-75
2023/12/09 09:57:42;;;;;;;40.42;30.13;;;;;;;0.49;100.00;100015.63;4998652;28;20491;-73
2023/12/09 10:00:15;;;;;;;73.40;31.65;;;;;;;0.61;100.00;100019.41;5004300;28;20040;-75
2023/12/09 10:02:47;;;;;;;58.83;31.00;;;;;;;0.70;100.00;100019.03;4995876;28;20031;-74
2023/12/09 10:05:20;;;;;;;48.15;30.90;;;;;;;0.65;100.00;100023.59;5003763;28;20439;-74
2023/12/09 10:07:45;;;;;;;50.63;31.42;;;;;;;0.72;100.00;100030.16;5001702;28;20368;-73
2023/12/09 10:10:13;;;;;;;46.50;33.03;;;;;;;0.78;100.00;100022.94;5002006;28;20030;-76
2023/12/09 10:12:39;;;;;;;46.65;32.97;;;;;;;0.89;100.00;100025.03;5003571;28;20038;-73
2023/12/09 10:15:06;;;;;;;64.28;30.92;;;;;;;0.91;100.00;100012.81;4997139;28;20038;-75
2023/12/09 10:17:32;;;;;;;60.10;31.05;;;;;;;0.90;100.00;100013.72;5001885;28;20061;-74
2023/12/09 10:19:58;;;;;;;60.88;32.85;;;;;;;0.95;100.00;99998.78;5001762;28;20109;-73
2023/12/09 10:22:28;;;;;;;56.08;33.03;;;;;;;1.01;100.00;99998.47;5001853;28;20102;-74
2023/12/09 10:24:55;;;;;;;52.73;33.50;;;;;;;1.08;100.00;100005.09;5002103;28;20042;-74
2023/12/09 10:27:22;;;;;;;44.83;31.35;;;;;;;1.11;100.00;99999.75;5005286;28;20501;-74
2023/12/09 10:29:52;;;;;;;45.22;31.80;;;;;;;1.09;100.00;99995.53;5021574;28;20030;-74
2023/12/09 10:32:20;;;;;;;46.47;31.27;;;;;;;1.16;100.00;99986.53;5020566;28;20029;-73
2023/12/09 10:34:46;;;;;;;46.83;32.63;;;;;;;1.20;100.00;99967.25;5021397;28;20042;-74
2023/12/09 10:37:12;;;;;;;48.88;32.47;;;;;;;1.24;100.00;99974.84;5020299;28;20056;-74
2023/12/09 10:39:49;;;;;;;53.20;31.00;;;;;;;1.21;100.00;99975.00;5022330;28;20069;-73
2023/12/09 10:42:18;;;;;;;43.72;30.95;;;;;;;1.19;100.00;99969.03;5015341;28;20034;-74
2023/12/09 10:44:44;;;;;;;46.33;29.77;;;;;;;1.23;100.00;99964.53;5022294;28;20494;-74
2023/12/09 10:47:09;;;;;;;56.13;31.48;;;;;;;1.12;100.00;99954.63;5022549;28;20088;-73
2023/12/09 10:49:35;;;;;;;42.15;28.92;;;;;;;1.14;100.00;99941.56;5021410;28;20101;-74
2023/12/09 10:52:01;;;;;;;44.38;30.83;;;;;;;1.20;100.00;99929.13;5024257;28;20101;-74
2023/12/09 10:54:26;;;;;;;43.33;29.40;;;;;;;1.26;100.00;99934.94;5022850;28;20036;-74
2023/12/09 10:56:52;;;;;;;43.20;30.48;;;;;;;1.31;100.00;99923.38;5021305;28;20029;-73
2023/12/09 10:59:18;;;;;;;43.55;29.50;;;;;;;1.34;100.00;99917.22;5004631;28;20500;-74
2023/12/09 11:01:45;;;;;;;42.92;30.10;;;;;;;1.37;100.00;99906.63;5020914;28;20092;-74
2023/12/09 11:04:12;;;;;;;38.40;29.00;;;;;;;1.40;100.00;99901.31;5023484;28;20037;-73
2023/12/09 11:06:40;;;;;;;38.33;28.70;;;;;;;1.46;100.00;99885.41;5025811;28;20045;-73
2023/12/09 11:09:07;;;;;;;37.92;28.80;;;;;;;1.50;100.00;99886.91;5019048;28;20034;-73
2023/12/09 11:11:35;;;;;;;40.28;29.23;;;;;;;1.54;100.00;99888.44;5026595;28;20029;-75